sensor_id;sensor_type;location;lat;lon;timestamp;temperature;humidity
22035;DHT22;11181;51.002;4.356;2023-11-25T00:00:51;7.70;99.90
22035;DHT22;11181;51.002;4.356;2023-11-25T00:03:18;8.00;99.90
22035;DHT22;11181;51.002;4.356;2023-11-25T00:05:45;8.10;99.90
22035;DHT22;11181;51.002;4.356;2023-11-25T00:08:12;8.10;99.90
22035;DHT22;11181;51.002;4.356;2023-11-25T00:10:40;8.10;99.90
22035;DHT22;11181;51.002;4.356;2023-11-25T00:13:07;8.20;99.90
22035;DHT22;11181;51.002;4.356;2023-11-25T00:15:34;8.10;99.90
22035;DHT22;11181;51.002;4.356;2023-11-25T00:18:03;8.20;99.90
22035;DHT22;11181;51.002;4.356;2023-11-25T00:20:31;8.30;99.90
22035;DHT22;11181;51.002;4.356;2023-11-25T00:23:01;8.40;99.90
22035;DHT22;11181;51.002;4.356;2023-11-25T00:25:28;8.50;99.90
22035;DHT22;11181;51.002;4.356;2023-11-25T00:27:55;8.40;99.90
22035;DHT22;11181;51.002;4.356;2023-11-25T00:30:22;8.30;99.90
22035;DHT22;11181;51.002;4.356;2023-11-25T00:32:50;8.00;99.90
22035;DHT22;11181;51.002;4.356;2023-11-25T00:35:18;7.70;99.90
22035;DHT22;11181;51.002;4.356;2023-11-25T00:37:45;7.60;99.90
22035;DHT22;11181;51.002;4.356;2023-11-25T00:40:12;7.30;99.90
22035;DHT22;11181;51.002;4.356;2023-11-25T00:42:41;6.80;99.90
22035;DHT22;11181;51.002;4.356;2023-11-25T00:45:09;6.40;99.90
22035;DHT22;11181;51.002;4.356;2023-11-25T00:47:36;6.40;99.90
22035;DHT22;11181;51.002;4.356;2023-11-25T00:50:06;6.30;99.90
22035;DHT22;11181;51.002;4.356;2023-11-25T00:52:35;6.30;99.90
22035;DHT22;11181;51.002;4.356;2023-11-25T00:55:03;6.40;99.90
22035;DHT22;11181;51.002;4.356;2023-11-25T00:57:30;6.60;99.90
22035;DHT22;11181;51.002;4.356;2023-11-25T00:59:57;6.80;99.90
22035;DHT22;11181;51.002;4.356;2023-11-25T01:02:24;6.90;99.90
22035;DHT22;11181;51.002;4.356;2023-11-25T01:04:53;7.10;99.90
22035;DHT22;11181;51.002;4.356;2023-11-25T01:07:20;7.30;99.90
22035;DHT22;11181;51.002;4.356;2023-11-25T01:09:48;7.60;99.90
22035;DHT22;11181;51.002;4.356;2023-11-25T01:12:15;7.70;99.90
22035;DHT22;11181;51.002;4.356;2023-11-25T01:14:42;7.90;99.90
22035;DHT22;11181;51.002;4.356;2023-11-25T01:17:09;8.00;99.90
22035;DHT22;11181;51.002;4.356;2023-11-25T01:19:36;8.10;99.90
22035;DHT22;11181;51.002;4.356;2023-11-25T01:22:03;8.10;99.90
22035;DHT22;11181;51.002;4.356;2023-11-25T01:24:30;8.10;99.90
22035;DHT22;11181;51.002;4.356;2023-11-25T01:26:58;8.20;99.90
22035;DHT22;11181;51.002;4.356;2023-11-25T01:29:25;8.30;99.90
22035;DHT22;11181;51.002;4.356;2023-11-25T01:31:52;8.40;99.90
22035;DHT22;11181;51.002;4.356;2023-11-25T01:34:19;8.40;99.90
22035;DHT22;11181;51.002;4.356;2023-11-25T01:36:46;8.50;99.90
22035;DHT22;11181;51.002;4.356;2023-11-25T01:39:13;8.50;99.90
22035;DHT22;11181;51.002;4.356;2023-11-25T01:41:40;8.50;99.90
22035;DHT22;11181;51.002;4.356;2023-11-25T01:44:10;8.50;99.90
22035;DHT22;11181;51.002;4.356;2023-11-25T01:46:41;8.50;99.90
22035;DHT22;11181;51.002;4.356;2023-11-25T01:49:10;8.60;99.90
22035;DHT22;11181;51.002;4.356;2023-11-25T01:51:40;8.50;99.90
22035;DHT22;11181;51.002;4.356;2023-11-25T01:54:09;8.50;99.90
22035;DHT22;11181;51.002;4.356;2023-11-25T01:56:37;8.40;99.90
22035;DHT22;11181;51.002;4.356;2023-11-25T01:59:05;8.30;99.90
22035;DHT22;11181;51.002;4.356;2023-11-25T02:01:35;8.30;99.90
22035;DHT22;11181;51.002;4.356;2023-11-25T02:04:02;8.20;99.90
22035;DHT22;11181;51.002;4.356;2023-11-25T02:06:29;8.30;99.90
22035;DHT22;11181;51.002;4.356;2023-11-25T02:08:58;8.30;99.90
22035;DHT22;11181;51.002;4.356;2023-11-25T02:11:25;8.20;99.90
22035;DHT22;11181;51.002;4.356;2023-11-25T02:13:52;8.20;99.90
22035;DHT22;11181;51.002;4.356;2023-11-25T02:16:19;8.10;99.90
22035;DHT22;11181;51.002;4.356;2023-11-25T02:18:47;8.00;99.90
22035;DHT22;11181;51.002;4.356;2023-11-25T02:21:14;7.90;99.90
22035;DHT22;11181;51.002;4.356;2023-11-25T02:23:42;7.90;99.90
22035;DHT22;11181;51.002;4.356;2023-11-25T02:26:09;7.80;99.90
22035;DHT22;11181;51.002;4.356;2023-11-25T02:28:36;7.80;99.90
22035;DHT22;11181;51.002;4.356;2023-11-25T02:31:04;7.80;99.90
22035;DHT22;11181;51.002;4.356;2023-11-25T02:33:32;7.80;99.90
22035;DHT22;11181;51.002;4.356;2023-11-25T02:36:01;7.80;99.90
22035;DHT22;11181;51.002;4.356;2023-11-25T02:38:28;7.70;99.90
22035;DHT22;11181;51.002;4.356;2023-11-25T02:40:57;7.80;99.90
22035;DHT22;11181;51.002;4.356;2023-11-25T02:43:24;7.90;99.90
22035;DHT22;11181;51.002;4.356;2023-11-25T02:45:52;7.90;99.90
22035;DHT22;11181;51.002;4.356;2023-11-25T02:48:19;7.90;99.90
22035;DHT22;11181;51.002;4.356;2023-11-25T02:50:46;8.00;99.90
22035;DHT22;11181;51.002;4.356;2023-11-25T02:53:13;8.00;99.90
22035;DHT22;11181;51.002;4.356;2023-11-25T02:55:40;8.00;99.90
22035;DHT22;11181;51.002;4.356;2023-11-25T02:58:11;8.00;99.90
22035;DHT22;11181;51.002;4.356;2023-11-25T03:00:38;8.00;99.90
22035;DHT22;11181;51.002;4.356;2023-11-25T03:03:06;8.00;99.90
22035;DHT22;11181;51.002;4.356;2023-11-25T03:05:39;8.00;99.90
22035;DHT22;11181;51.002;4.356;2023-11-25T03:08:09;7.90;99.90
22035;DHT22;11181;51.002;4.356;2023-11-25T03:10:38;7.80;99.90
22035;DHT22;11181;51.002;4.356;2023-11-25T03:13:09;7.80;99.90
22035;DHT22;11181;51.002;4.356;2023-11-25T03:15:36;7.60;99.90
22035;DHT22;11181;51.002;4.356;2023-11-25T03:18:04;7.60;99.90
22035;DHT22;11181;51.002;4.356;2023-11-25T03:20:32;7.70;99.90
22035;DHT22;11181;51.002;4.356;2023-11-25T03:22:59;7.70;99.90
22035;DHT22;11181;51.002;4.356;2023-11-25T03:25:26;7.60;99.90
22035;DHT22;11181;51.002;4.356;2023-11-25T03:27:56;7.60;99.90
22035;DHT22;11181;51.002;4.356;2023-11-25T03:30:25;7.60;99.90
22035;DHT22;11181;51.002;4.356;2023-11-25T03:32:53;7.50;99.90
22035;DHT22;11181;51.002;4.356;2023-11-25T03:35:20;7.50;99.90
22035;DHT22;11181;51.002;4.356;2023-11-25T03:37:47;7.50;99.90
22035;DHT22;11181;51.002;4.356;2023-11-25T03:40:14;7.50;99.90
22035;DHT22;11181;51.002;4.356;2023-11-25T03:42:41;7.60;99.90
22035;DHT22;11181;51.002;4.356;2023-11-25T03:45:09;7.60;99.90
22035;DHT22;11181;51.002;4.356;2023-11-25T03:47:39;7.60;99.90
22035;DHT22;11181;51.002;4.356;2023-11-25T03:50:07;7.50;99.90
22035;DHT22;11181;51.002;4.356;2023-11-25T03:52:34;7.50;99.90
22035;DHT22;11181;51.002;4.356;2023-11-25T03:55:01;7.50;99.90
22035;DHT22;11181;51.002;4.356;2023-11-25T03:57:28;7.50;99.90
22035;DHT22;11181;51.002;4.356;2023-11-25T03:59:55;7.50;99.90
22035;DHT22;11181;51.002;4.356;2023-11-25T04:02:22;7.50;99.90
22035;DHT22;11181;51.002;4.356;2023-11-25T04:04:51;7.50;99.90
22035;DHT22;11181;51.002;4.356;2023-11-25T04:07:18;7.60;99.90
22035;DHT22;11181;51.002;4.356;2023-11-25T04:09:45;7.60;99.90
22035;DHT22;11181;51.002;4.356;2023-11-25T04:12:12;7.70;99.90
22035;DHT22;11181;51.002;4.356;2023-11-25T04:14:39;7.70;99.90
22035;DHT22;11181;51.002;4.356;2023-11-25T04:17:06;7.80;99.90
22035;DHT22;11181;51.002;4.356;2023-11-25T04:19:34;7.70;99.90
22035;DHT22;11181;51.002;4.356;2023-11-25T04:22:03;7.70;99.90
22035;DHT22;11181;51.002;4.356;2023-11-25T04:24:30;7.70;99.90
22035;DHT22;11181;51.002;4.356;2023-11-25T04:26:58;7.70;99.90
22035;DHT22;11181;51.002;4.356;2023-11-25T04:29:25;7.80;99.90
22035;DHT22;11181;51.002;4.356;2023-11-25T04:31:52;7.80;99.90
22035;DHT22;11181;51.002;4.356;2023-11-25T04:34:19;7.80;99.90
22035;DHT22;11181;51.002;4.356;2023-11-25T04:36:46;7.90;99.90
22035;DHT22;11181;51.002;4.356;2023-11-25T04:39:15;7.90;99.90
22035;DHT22;11181;51.002;4.356;2023-11-25T04:41:42;7.90;99.90
22035;DHT22;11181;51.002;4.356;2023-11-25T04:44:09;7.90;99.90
22035;DHT22;11181;51.002;4.356;2023-11-25T04:46:36;7.90;99.90
22035;DHT22;11181;51.002;4.356;2023-11-25T04:49:03;7.90;99.90
22035;DHT22;11181;51.002;4.356;2023-11-25T04:51:30;7.80;99.90
22035;DHT22;11181;51.002;4.356;2023-11-25T04:54:00;7.80;99.90
22035;DHT22;11181;51.002;4.356;2023-11-25T04:56:28;7.80;99.90
22035;DHT22;11181;51.002;4.356;2023-11-25T04:58:56;7.80;99.90
22035;DHT22;11181;51.002;4.356;2023-11-25T05:01:23;7.80;99.90
22035;DHT22;11181;51.002;4.356;2023-11-25T05:03:51;7.80;99.90
22035;DHT22;11181;51.002;4.356;2023-11-25T05:06:18;7.70;99.90
22035;DHT22;11181;51.002;4.356;2023-11-25T05:08:45;7.60;99.90
22035;DHT22;11181;51.002;4.356;2023-11-25T05:11:12;7.60;99.90
22035;DHT22;11181;51.002;4.356;2023-11-25T05:13:40;7.50;99.90
22035;DHT22;11181;51.002;4.356;2023-11-25T05:16:08;7.50;99.90
22035;DHT22;11181;51.002;4.356;2023-11-25T05:18:35;7.40;99.90
22035;DHT22;11181;51.002;4.356;2023-11-25T05:21:03;7.40;99.90
22035;DHT22;11181;51.002;4.356;2023-11-25T05:23:32;7.30;99.90
22035;DHT22;11181;51.002;4.356;2023-11-25T05:25:59;7.40;99.90
22035;DHT22;11181;51.002;4.356;2023-11-25T05:28:26;7.40;99.90
22035;DHT22;11181;51.002;4.356;2023-11-25T05:30:54;7.30;99.90
22035;DHT22;11181;51.002;4.356;2023-11-25T05:33:21;7.10;99.90
22035;DHT22;11181;51.002;4.356;2023-11-25T05:35:48;7.00;99.90
22035;DHT22;11181;51.002;4.356;2023-11-25T05:38:15;6.80;99.90
22035;DHT22;11181;51.002;4.356;2023-11-25T05:40:43;6.70;99.90
22035;DHT22;11181;51.002;4.356;2023-11-25T05:43:11;6.40;99.90
22035;DHT22;11181;51.002;4.356;2023-11-25T05:45:39;6.20;99.90
22035;DHT22;11181;51.002;4.356;2023-11-25T05:48:09;6.20;99.90
22035;DHT22;11181;51.002;4.356;2023-11-25T05:50:35;6.10;99.90
22035;DHT22;11181;51.002;4.356;2023-11-25T05:53:03;6.20;99.90
22035;DHT22;11181;51.002;4.356;2023-11-25T05:55:30;6.50;99.90
22035;DHT22;11181;51.002;4.356;2023-11-25T05:58:00;6.70;99.90
22035;DHT22;11181;51.002;4.356;2023-11-25T06:00:27;7.00;99.90
22035;DHT22;11181;51.002;4.356;2023-11-25T06:02:55;7.30;99.90
22035;DHT22;11181;51.002;4.356;2023-11-25T06:05:23;7.60;99.90
22035;DHT22;11181;51.002;4.356;2023-11-25T06:07:50;7.70;99.90
22035;DHT22;11181;51.002;4.356;2023-11-25T06:10:17;7.90;99.90
22035;DHT22;11181;51.002;4.356;2023-11-25T06:12:44;7.90;99.90
22035;DHT22;11181;51.002;4.356;2023-11-25T06:15:11;8.00;99.90
22035;DHT22;11181;51.002;4.356;2023-11-25T06:17:39;8.10;99.90
22035;DHT22;11181;51.002;4.356;2023-11-25T06:20:07;8.10;99.90
22035;DHT22;11181;51.002;4.356;2023-11-25T06:22:36;8.00;99.90
22035;DHT22;11181;51.002;4.356;2023-11-25T06:25:06;8.10;99.90
22035;DHT22;11181;51.002;4.356;2023-11-25T06:27:33;8.20;99.90
22035;DHT22;11181;51.002;4.356;2023-11-25T06:30:00;8.40;99.90
22035;DHT22;11181;51.002;4.356;2023-11-25T06:32:28;8.40;99.90
22035;DHT22;11181;51.002;4.356;2023-11-25T06:34:55;8.50;99.90
22035;DHT22;11181;51.002;4.356;2023-11-25T06:37:23;8.50;99.90
22035;DHT22;11181;51.002;4.356;2023-11-25T06:39:52;8.50;99.90
22035;DHT22;11181;51.002;4.356;2023-11-25T06:42:19;8.60;99.90
22035;DHT22;11181;51.002;4.356;2023-11-25T06:44:47;8.60;99.90
22035;DHT22;11181;51.002;4.356;2023-11-25T06:47:16;8.60;99.90
22035;DHT22;11181;51.002;4.356;2023-11-25T06:49:44;8.60;99.90
22035;DHT22;11181;51.002;4.356;2023-11-25T06:52:11;8.40;99.90
22035;DHT22;11181;51.002;4.356;2023-11-25T06:54:39;8.30;99.90
22035;DHT22;11181;51.002;4.356;2023-11-25T06:57:07;8.30;99.90
22035;DHT22;11181;51.002;4.356;2023-11-25T06:59:35;8.20;99.90
22035;DHT22;11181;51.002;4.356;2023-11-25T07:02:02;8.20;99.90
22035;DHT22;11181;51.002;4.356;2023-11-25T07:04:30;8.10;99.90
22035;DHT22;11181;51.002;4.356;2023-11-25T07:06:57;8.10;99.90
22035;DHT22;11181;51.002;4.356;2023-11-25T07:09:23;8.10;99.90
22035;DHT22;11181;51.002;4.356;2023-11-25T07:11:50;8.10;99.90
22035;DHT22;11181;51.002;4.356;2023-11-25T07:14:20;8.10;99.90
22035;DHT22;11181;51.002;4.356;2023-11-25T07:16:47;8.00;99.90
22035;DHT22;11181;51.002;4.356;2023-11-25T07:19:14;7.80;99.90
22035;DHT22;11181;51.002;4.356;2023-11-25T07:21:41;7.60;99.90
22035;DHT22;11181;51.002;4.356;2023-11-25T07:24:09;7.60;99.90
22035;DHT22;11181;51.002;4.356;2023-11-25T07:26:37;7.50;99.90
22035;DHT22;11181;51.002;4.356;2023-11-25T07:29:08;7.50;99.90
22035;DHT22;11181;51.002;4.356;2023-11-25T07:31:37;7.60;99.90
22035;DHT22;11181;51.002;4.356;2023-11-25T07:34:04;7.70;99.90
22035;DHT22;11181;51.002;4.356;2023-11-25T07:36:31;7.70;99.90
22035;DHT22;11181;51.002;4.356;2023-11-25T07:38:59;7.80;99.90
22035;DHT22;11181;51.002;4.356;2023-11-25T07:41:27;8.00;99.90
22035;DHT22;11181;51.002;4.356;2023-11-25T07:43:54;8.00;99.90
22035;DHT22;11181;51.002;4.356;2023-11-25T07:46:21;8.00;99.90
22035;DHT22;11181;51.002;4.356;2023-11-25T07:48:49;7.90;99.90
22035;DHT22;11181;51.002;4.356;2023-11-25T07:51:16;7.90;99.90
22035;DHT22;11181;51.002;4.356;2023-11-25T07:53:43;8.00;99.90
22035;DHT22;11181;51.002;4.356;2023-11-25T07:56:10;7.90;99.90
22035;DHT22;11181;51.002;4.356;2023-11-25T07:58:37;7.80;99.90
22035;DHT22;11181;51.002;4.356;2023-11-25T08:01:04;7.80;99.90
22035;DHT22;11181;51.002;4.356;2023-11-25T08:03:32;7.60;99.90
22035;DHT22;11181;51.002;4.356;2023-11-25T08:06:01;7.50;99.90
22035;DHT22;11181;51.002;4.356;2023-11-25T08:08:29;7.60;99.90
22035;DHT22;11181;51.002;4.356;2023-11-25T08:10:56;7.50;99.90
22035;DHT22;11181;51.002;4.356;2023-11-25T08:13:23;7.50;99.90
22035;DHT22;11181;51.002;4.356;2023-11-25T08:15:51;7.40;99.90
22035;DHT22;11181;51.002;4.356;2023-11-25T08:18:18;7.30;99.90
22035;DHT22;11181;51.002;4.356;2023-11-25T08:20:45;7.30;99.90
22035;DHT22;11181;51.002;4.356;2023-11-25T08:23:17;7.50;99.90
22035;DHT22;11181;51.002;4.356;2023-11-25T08:25:45;7.50;99.90
22035;DHT22;11181;51.002;4.356;2023-11-25T08:28:12;7.80;99.90
22035;DHT22;11181;51.002;4.356;2023-11-25T08:30:39;7.90;99.90
22035;DHT22;11181;51.002;4.356;2023-11-25T08:33:06;8.00;99.90
22035;DHT22;11181;51.002;4.356;2023-11-25T08:35:33;8.10;99.90
22035;DHT22;11181;51.002;4.356;2023-11-25T08:37:59;8.10;99.90
22035;DHT22;11181;51.002;4.356;2023-11-25T08:40:28;8.20;99.90
22035;DHT22;11181;51.002;4.356;2023-11-25T08:42:55;8.30;99.90
22035;DHT22;11181;51.002;4.356;2023-11-25T08:45:27;8.40;99.90
22035;DHT22;11181;51.002;4.356;2023-11-25T08:47:54;8.50;99.90
22035;DHT22;11181;51.002;4.356;2023-11-25T08:50:23;8.60;99.90
22035;DHT22;11181;51.002;4.356;2023-11-25T08:52:50;8.70;99.90
22035;DHT22;11181;51.002;4.356;2023-11-25T08:55:17;8.80;99.90
22035;DHT22;11181;51.002;4.356;2023-11-25T08:57:46;8.80;99.90
22035;DHT22;11181;51.002;4.356;2023-11-25T09:00:14;8.40;99.90
22035;DHT22;11181;51.002;4.356;2023-11-25T09:02:42;8.10;99.90
22035;DHT22;11181;51.002;4.356;2023-11-25T09:05:10;7.90;99.90
22035;DHT22;11181;51.002;4.356;2023-11-25T09:07:40;8.00;99.90
22035;DHT22;11181;51.002;4.356;2023-11-25T09:10:09;8.00;99.90
22035;DHT22;11181;51.002;4.356;2023-11-25T09:12:36;7.90;99.90
22035;DHT22;11181;51.002;4.356;2023-11-25T09:15:06;8.10;99.90
22035;DHT22;11181;51.002;4.356;2023-11-25T09:17:34;8.40;99.90
22035;DHT22;11181;51.002;4.356;2023-11-25T09:20:05;8.60;99.90
22035;DHT22;11181;51.002;4.356;2023-11-25T09:22:35;9.10;99.90
22035;DHT22;11181;51.002;4.356;2023-11-25T09:25:03;9.50;99.90
22035;DHT22;11181;51.002;4.356;2023-11-25T09:27:30;9.70;99.90
22035;DHT22;11181;51.002;4.356;2023-11-25T09:29:57;10.00;99.90
22035;DHT22;11181;51.002;4.356;2023-11-25T09:32:26;10.00;99.90
22035;DHT22;11181;51.002;4.356;2023-11-25T09:34:54;10.00;99.90
22035;DHT22;11181;51.002;4.356;2023-11-25T09:37:21;10.00;99.90
22035;DHT22;11181;51.002;4.356;2023-11-25T09:39:48;9.80;99.90
22035;DHT22;11181;51.002;4.356;2023-11-25T09:42:16;9.60;99.90
22035;DHT22;11181;51.002;4.356;2023-11-25T09:44:43;9.50;99.90
22035;DHT22;11181;51.002;4.356;2023-11-25T09:47:10;9.50;99.90
22035;DHT22;11181;51.002;4.356;2023-11-25T09:49:38;9.30;99.90
22035;DHT22;11181;51.002;4.356;2023-11-25T09:52:07;9.30;99.90
22035;DHT22;11181;51.002;4.356;2023-11-25T09:54:35;9.20;99.90
22035;DHT22;11181;51.002;4.356;2023-11-25T09:57:04;9.20;99.90
22035;DHT22;11181;51.002;4.356;2023-11-25T09:59:32;9.20;99.90
22035;DHT22;11181;51.002;4.356;2023-11-25T10:01:59;9.10;99.90
22035;DHT22;11181;51.002;4.356;2023-11-25T10:04:26;8.90;99.90
22035;DHT22;11181;51.002;4.356;2023-11-25T10:06:55;8.60;99.90
22035;DHT22;11181;51.002;4.356;2023-11-25T10:09:22;8.40;99.90
22035;DHT22;11181;51.002;4.356;2023-11-25T10:11:49;8.20;99.90
22035;DHT22;11181;51.002;4.356;2023-11-25T10:14:17;8.10;99.90
22035;DHT22;11181;51.002;4.356;2023-11-25T10:16:44;8.30;99.90
22035;DHT22;11181;51.002;4.356;2023-11-25T10:19:19;8.50;99.90
22035;DHT22;11181;51.002;4.356;2023-11-25T10:21:47;9.10;99.90
22035;DHT22;11181;51.002;4.356;2023-11-25T10:24:16;9.70;99.90
22035;DHT22;11181;51.002;4.356;2023-11-25T10:26:45;10.40;99.90
22035;DHT22;11181;51.002;4.356;2023-11-25T10:29:13;10.90;99.90
22035;DHT22;11181;51.002;4.356;2023-11-25T10:31:41;11.50;99.90
22035;DHT22;11181;51.002;4.356;2023-11-25T10:34:09;12.00;99.90
22035;DHT22;11181;51.002;4.356;2023-11-25T10:36:37;12.40;99.90
22035;DHT22;11181;51.002;4.356;2023-11-25T10:39:06;12.50;99.90
22035;DHT22;11181;51.002;4.356;2023-11-25T10:41:35;12.70;99.90
22035;DHT22;11181;51.002;4.356;2023-11-25T10:44:05;13.00;99.90
22035;DHT22;11181;51.002;4.356;2023-11-25T10:46:37;13.30;99.90
22035;DHT22;11181;51.002;4.356;2023-11-25T10:49:05;13.50;99.90
22035;DHT22;11181;51.002;4.356;2023-11-25T10:51:32;13.70;99.90
22035;DHT22;11181;51.002;4.356;2023-11-25T10:53:59;13.70;99.90
22035;DHT22;11181;51.002;4.356;2023-11-25T10:56:27;14.00;99.90
22035;DHT22;11181;51.002;4.356;2023-11-25T10:58:57;14.20;99.90
22035;DHT22;11181;51.002;4.356;2023-11-25T11:01:28;14.50;99.90
22035;DHT22;11181;51.002;4.356;2023-11-25T11:03:59;14.60;99.90
22035;DHT22;11181;51.002;4.356;2023-11-25T11:06:28;14.90;99.90
22035;DHT22;11181;51.002;4.356;2023-11-25T11:08:56;15.00;99.90
22035;DHT22;11181;51.002;4.356;2023-11-25T11:11:31;14.80;99.90
22035;DHT22;11181;51.002;4.356;2023-11-25T11:14:06;14.20;99.90
22035;DHT22;11181;51.002;4.356;2023-11-25T11:16:41;13.20;99.90
22035;DHT22;11181;51.002;4.356;2023-11-25T11:19:09;12.80;99.90
22035;DHT22;11181;51.002;4.356;2023-11-25T11:21:37;12.10;99.90
22035;DHT22;11181;51.002;4.356;2023-11-25T11:24:06;11.30;99.90
22035;DHT22;11181;51.002;4.356;2023-11-25T11:26:48;10.90;99.90
22035;DHT22;11181;51.002;4.356;2023-11-25T11:29:23;11.00;99.90
22035;DHT22;11181;51.002;4.356;2023-11-25T11:31:59;11.30;99.90
22035;DHT22;11181;51.002;4.356;2023-11-25T11:34:28;11.50;99.90
22035;DHT22;11181;51.002;4.356;2023-11-25T11:36:55;11.80;99.90
22035;DHT22;11181;51.002;4.356;2023-11-25T11:39:33;12.00;99.90
22035;DHT22;11181;51.002;4.356;2023-11-25T11:42:25;12.00;99.90
22035;DHT22;11181;51.002;4.356;2023-11-25T11:44:58;11.90;99.90
22035;DHT22;11181;51.002;4.356;2023-11-25T11:47:37;11.80;99.90
22035;DHT22;11181;51.002;4.356;2023-11-25T11:50:06;11.60;99.90
22035;DHT22;11181;51.002;4.356;2023-11-25T11:55:34;11.10;99.90
22035;DHT22;11181;51.002;4.356;2023-11-25T11:58:05;11.10;99.90
22035;DHT22;11181;51.002;4.356;2023-11-25T12:00:47;11.30;99.90
22035;DHT22;11181;51.002;4.356;2023-11-25T12:03:15;11.70;99.90
22035;DHT22;11181;51.002;4.356;2023-11-25T12:05:42;12.00;99.90
22035;DHT22;11181;51.002;4.356;2023-11-25T12:08:09;12.50;99.90
22035;DHT22;11181;51.002;4.356;2023-11-25T12:10:37;12.80;99.90
22035;DHT22;11181;51.002;4.356;2023-11-25T12:13:04;13.20;99.90
22035;DHT22;11181;51.002;4.356;2023-11-25T12:15:33;13.40;99.90
22035;DHT22;11181;51.002;4.356;2023-11-25T12:18:02;13.10;99.90
22035;DHT22;11181;51.002;4.356;2023-11-25T12:20:31;12.80;99.90
22035;DHT22;11181;51.002;4.356;2023-11-25T12:23:03;12.40;99.90
22035;DHT22;11181;51.002;4.356;2023-11-25T12:25:34;11.80;99.90
22035;DHT22;11181;51.002;4.356;2023-11-25T12:28:05;11.60;99.90
22035;DHT22;11181;51.002;4.356;2023-11-25T12:30:34;11.80;99.90
22035;DHT22;11181;51.002;4.356;2023-11-25T12:33:03;12.00;99.90
22035;DHT22;11181;51.002;4.356;2023-11-25T12:35:32;12.20;99.90
22035;DHT22;11181;51.002;4.356;2023-11-25T12:37:59;12.30;99.90
22035;DHT22;11181;51.002;4.356;2023-11-25T12:40:27;12.50;99.90
22035;DHT22;11181;51.002;4.356;2023-11-25T12:42:55;12.30;99.90
22035;DHT22;11181;51.002;4.356;2023-11-25T12:45:32;12.30;99.90
22035;DHT22;11181;51.002;4.356;2023-11-25T12:48:01;12.30;99.90
22035;DHT22;11181;51.002;4.356;2023-11-25T12:50:31;12.10;99.90
22035;DHT22;11181;51.002;4.356;2023-11-25T12:53:07;12.10;99.90
22035;DHT22;11181;51.002;4.356;2023-11-25T12:55:38;12.00;99.90
22035;DHT22;11181;51.002;4.356;2023-11-25T12:58:06;11.90;99.90
22035;DHT22;11181;51.002;4.356;2023-11-25T13:00:34;11.80;99.90
22035;DHT22;11181;51.002;4.356;2023-11-25T13:03:02;11.60;99.90
22035;DHT22;11181;51.002;4.356;2023-11-25T13:05:32;11.30;99.90
22035;DHT22;11181;51.002;4.356;2023-11-25T13:08:22;11.10;99.90
22035;DHT22;11181;51.002;4.356;2023-11-25T13:10:54;10.60;99.90
22035;DHT22;11181;51.002;4.356;2023-11-25T13:13:21;10.30;99.90
22035;DHT22;11181;51.002;4.356;2023-11-25T13:15:49;10.30;99.90
22035;DHT22;11181;51.002;4.356;2023-11-25T13:18:19;10.50;99.90
22035;DHT22;11181;51.002;4.356;2023-11-25T13:20:48;10.50;99.90
22035;DHT22;11181;51.002;4.356;2023-11-25T13:23:15;10.50;99.90
22035;DHT22;11181;51.002;4.356;2023-11-25T13:25:45;10.50;99.90
22035;DHT22;11181;51.002;4.356;2023-11-25T13:28:12;10.70;99.90
22035;DHT22;11181;51.002;4.356;2023-11-25T13:30:40;10.80;99.90
22035;DHT22;11181;51.002;4.356;2023-11-25T13:33:07;10.90;99.90
22035;DHT22;11181;51.002;4.356;2023-11-25T13:35:35;11.00;99.90
22035;DHT22;11181;51.002;4.356;2023-11-25T13:38:05;11.20;99.90
22035;DHT22;11181;51.002;4.356;2023-11-25T13:40:34;11.30;99.90
22035;DHT22;11181;51.002;4.356;2023-11-25T13:43:05;11.40;99.90
22035;DHT22;11181;51.002;4.356;2023-11-25T13:45:32;11.50;99.90
22035;DHT22;11181;51.002;4.356;2023-11-25T13:47:59;11.60;99.90
22035;DHT22;11181;51.002;4.356;2023-11-25T13:50:31;11.70;99.90
22035;DHT22;11181;51.002;4.356;2023-11-25T13:52:58;11.90;99.90
22035;DHT22;11181;51.002;4.356;2023-11-25T13:55:28;12.00;99.90
22035;DHT22;11181;51.002;4.356;2023-11-25T13:57:56;12.00;99.90
22035;DHT22;11181;51.002;4.356;2023-11-25T14:00:23;12.00;99.90
22035;DHT22;11181;51.002;4.356;2023-11-25T14:02:51;12.10;99.90
22035;DHT22;11181;51.002;4.356;2023-11-25T14:05:18;11.80;99.90
22035;DHT22;11181;51.002;4.356;2023-11-25T14:07:45;11.60;99.90
22035;DHT22;11181;51.002;4.356;2023-11-25T14:10:13;11.30;99.90
22035;DHT22;11181;51.002;4.356;2023-11-25T14:12:42;11.20;99.90
22035;DHT22;11181;51.002;4.356;2023-11-25T14:15:09;11.10;99.90
22035;DHT22;11181;51.002;4.356;2023-11-25T14:17:36;11.00;99.90
22035;DHT22;11181;51.002;4.356;2023-11-25T14:20:06;11.00;99.90
22035;DHT22;11181;51.002;4.356;2023-11-25T14:22:41;11.00;99.90
22035;DHT22;11181;51.002;4.356;2023-11-25T14:25:10;11.00;99.90
22035;DHT22;11181;51.002;4.356;2023-11-25T14:27:37;11.10;99.90
22035;DHT22;11181;51.002;4.356;2023-11-25T14:30:06;11.30;99.90
22035;DHT22;11181;51.002;4.356;2023-11-25T14:32:34;11.50;99.90
22035;DHT22;11181;51.002;4.356;2023-11-25T14:35:01;11.40;99.90
22035;DHT22;11181;51.002;4.356;2023-11-25T14:37:28;11.40;99.90
22035;DHT22;11181;51.002;4.356;2023-11-25T14:39:55;11.40;99.90
22035;DHT22;11181;51.002;4.356;2023-11-25T14:42:22;11.00;99.90
22035;DHT22;11181;51.002;4.356;2023-11-25T14:44:50;10.80;99.90
22035;DHT22;11181;51.002;4.356;2023-11-25T14:47:19;10.70;99.90
22035;DHT22;11181;51.002;4.356;2023-11-25T14:49:46;10.60;99.90
22035;DHT22;11181;51.002;4.356;2023-11-25T14:52:13;10.70;99.90
22035;DHT22;11181;51.002;4.356;2023-11-25T14:54:39;10.60;99.90
22035;DHT22;11181;51.002;4.356;2023-11-25T14:57:07;10.60;99.90
22035;DHT22;11181;51.002;4.356;2023-11-25T14:59:34;10.60;99.90
22035;DHT22;11181;51.002;4.356;2023-11-25T15:02:01;10.50;99.90
22035;DHT22;11181;51.002;4.356;2023-11-25T15:04:30;10.30;99.90
22035;DHT22;11181;51.002;4.356;2023-11-25T15:06:57;10.10;99.90
22035;DHT22;11181;51.002;4.356;2023-11-25T15:09:24;10.20;99.90
22035;DHT22;11181;51.002;4.356;2023-11-25T15:11:52;10.20;99.90
22035;DHT22;11181;51.002;4.356;2023-11-25T15:14:19;10.20;99.90
22035;DHT22;11181;51.002;4.356;2023-11-25T15:16:47;10.20;99.90
22035;DHT22;11181;51.002;4.356;2023-11-25T15:19:15;10.10;99.90
22035;DHT22;11181;51.002;4.356;2023-11-25T15:21:43;9.90;99.90
22035;DHT22;11181;51.002;4.356;2023-11-25T15:24:10;9.90;99.90
22035;DHT22;11181;51.002;4.356;2023-11-25T15:26:40;9.90;99.90
22035;DHT22;11181;51.002;4.356;2023-11-25T15:29:09;9.90;99.90
22035;DHT22;11181;51.002;4.356;2023-11-25T15:31:36;9.90;99.90
22035;DHT22;11181;51.002;4.356;2023-11-25T15:34:05;9.80;99.90
22035;DHT22;11181;51.002;4.356;2023-11-25T15:36:33;9.80;99.90
22035;DHT22;11181;51.002;4.356;2023-11-25T15:39:02;9.80;99.90
22035;DHT22;11181;51.002;4.356;2023-11-25T15:41:31;9.70;99.90
22035;DHT22;11181;51.002;4.356;2023-11-25T15:43:58;9.80;99.90
22035;DHT22;11181;51.002;4.356;2023-11-25T15:46:26;9.60;99.90
22035;DHT22;11181;51.002;4.356;2023-11-25T15:48:53;9.70;99.90
22035;DHT22;11181;51.002;4.356;2023-11-25T15:51:20;9.70;99.90